Yasemin — 9HA2114 — position and weather

sailwx.info

Track history (hours):
 
Tides and Currents Weather Stations Pressure Air Temp Water Temp Dewpoint Dewpoint Depression Visibility Wind Speed Wind Dir Waves Ship Positions

Yasemin

Last reported at 2017-Jul-27 02:43 UTC. Time now 2017-Jul-27 06:44 UTC.
Position N 32°22' W 009°60'.

Length 105 m; draft 7 m.

Type: Cargo ship. MMSI: 249988000.

Date/timePositionNaut miles runAvg speedWind from/ knotsBaromVisibWave heightAir tempDewpointWater temp
2017-Jul-27 02:43N 32°22' W 009°60'2 9.7
2017-Jul-27 02:30N 32°21' W 010°02'61 8.7
2017-Jul-26 19:32N 31°39' W 010°55'1 8.1
2017-Jul-26 19:26N 31°39' W 010°55'3 8.0
2017-Jul-26 19:00N 31°36' W 010°58'10 7.8
2017-Jul-26 17:40N 31°30' W 011°07'2 7.3
2017-Jul-26 17:26N 31°28' W 011°09'3 7.4
2017-Jul-26 17:00N 31°26' W 011°12'4 7.6
2017-Jul-26 16:30N 31°24' W 011°15'4 8.1
2017-Jul-26 15:57N 31°21' W 011°19'4 8.0
2017-Jul-26 15:28N 31°18' W 011°22'6 8.3
2017-Jul-26 14:45N 31°14' W 011°27'6 8.5
2017-Jul-26 14:00N 31°09' W 011°32'4 8.7
2017-Jul-26 13:29N 31°06' W 011°36'5 9.0
2017-Jul-26 12:57N 31°03' W 011°40'4 9.0
2017-Jul-26 12:30N 31°00' W 011°44'6 9.0
2017-Jul-26 11:48N 30°56' W 011°50'3 8.8
2017-Jul-26 11:28N 30°54' W 011°52'46 8.2
2017-Jul-26 05:49N 30°24' W 012°32'19 7.4
2017-Jul-26 03:15N 30°11' W 012°48'6 7.2
2017-Jul-26 02:28N 30°07' W 012°53'7 7.3
2017-Jul-26 01:31N 30°02' W 012°59'1 7.2
2017-Jul-26 01:24N 30°01' W 012°59'6 6.9
2017-Jul-26 00:31N 29°57' W 013°04'1 6.9
2017-Jul-26 00:23N 29°57' W 013°05'47 7.2
2017-Jul-25 17:52N 29°25' W 013°45'14 8.0
2017-Jul-25 16:09N 29°16' W 013°57'2 8.1
2017-Jul-25 15:52N 29°14' W 013°59'3 7.9
2017-Jul-25 15:30N 29°12' W 014°01'14 8.0
2017-Jul-25 13:42N 29°03' W 014°13'2 8.1
2017-Jul-25 13:28N 29°01' W 014°15'4 7.9
2017-Jul-25 13:00N 28°59' W 014°18'4 7.9
2017-Jul-25 12:29N 28°56' W 014°21'7 7.9
2017-Jul-25 11:39N 28°52' W 014°27'1 7.8
2017-Jul-25 11:29N 28°51' W 014°28'5 8.0
2017-Jul-25 10:53N 28°48' W 014°33'4 7.9
2017-Jul-25 10:23N 28°45' W 014°36'3 7.8
2017-Jul-25 10:00N 28°43' W 014°39'9 7.8
2017-Jul-25 08:52N 28°38' W 014°46'4 7.7
2017-Jul-25 08:24N 28°35' W 014°49'3 8.1
2017-Jul-25 07:59N 28°33' W 014°52'4 7.9
2017-Jul-25 07:30N 28°30' W 014°55'4 7.9
2017-Jul-25 07:00N 28°27' W 014°58'4 7.9
2017-Jul-25 06:30N 28°25' W 015°01'4 8.0
2017-Jul-25 06:00N 28°22' W 015°05'4 8.0
2017-Jul-25 05:30N 28°19' W 015°08'4 8.1
2017-Jul-25 05:00N 28°16' W 015°11'4 8.3
2017-Jul-25 04:30N 28°13' W 015°15'4 8.5
2017-Jul-25 04:00N 28°11' W 015°18'4 8.4
2017-Jul-25 03:30N 28°08' W 015°22'2 4.9
2017-Jul-25 03:00N 28°08' W 015°25'0 0.5
2017-Jul-25 02:22N 28°08' W 015°25'0 0.0
2017-Jul-25 01:52N 28°08' W 015°25'0 0.0
2017-Jul-25 01:22N 28°08' W 015°25'0 0.0
2017-Jul-25 00:55N 28°08' W 015°25'0 0.0
2017-Jul-25 00:25N 28°08' W 015°25'0 0.0
2017-Jul-24 23:55N 28°08' W 015°25'0 0.0
2017-Jul-24 23:25N 28°08' W 015°25'0 0.0
2017-Jul-24 22:55N 28°08' W 015°25'0 0.0
2017-Jul-24 22:25N 28°08' W 015°25'0 0.0
2017-Jul-24 21:55N 28°08' W 015°25'0 0.0
2017-Jul-24 21:25N 28°08' W 015°25'0 0.0
2017-Jul-24 20:58N 28°08' W 015°25'0 0.0
2017-Jul-24 20:28N 28°08' W 015°25'0 0.0
2017-Jul-24 19:58N 28°08' W 015°25'0 0.0
2017-Jul-24 19:28N 28°08' W 015°25'0 0.0
2017-Jul-24 18:58N 28°08' W 015°25'0 0.0
2017-Jul-24 18:29N 28°08' W 015°25'1 2.9
2017-Jul-24 18:00N 28°07' W 015°24'2 4.2
2017-Jul-24 17:31N 28°06' W 015°22'4 8.4
2017-Jul-24 17:00N 28°02' W 015°20'4 8.3
2017-Jul-24 16:30N 27°58' W 015°19'4 7.7
2017-Jul-24 16:00N 27°55' W 015°17'  
Track history (hours):
 
Tides and Currents Weather Stations Pressure Air Temp Water Temp Dewpoint Dewpoint Depression Visibility Wind Speed Wind Dir Waves Ship Positions

Yasemin

Last reported at 2017-Jul-27 02:43 UTC. Time now 2017-Jul-27 06:44 UTC.
Position N 32°22' W 009°60'.

Length 105 m; draft 7 m.

Type: Cargo ship. MMSI: 249988000.

Date/timePositionNaut miles runAvg speedWind from/ knotsBaromVisibWave heightAir tempDewpointWater temp
2017-Jul-27 02:43N 32°22' W 009°60'2 9.7
2017-Jul-27 02:30N 32°21' W 010°02'61 8.7
2017-Jul-26 19:32N 31°39' W 010°55'1 8.1
2017-Jul-26 19:26N 31°39' W 010°55'3 8.0
2017-Jul-26 19:00N 31°36' W 010°58'10 7.8
2017-Jul-26 17:40N 31°30' W 011°07'2 7.3
2017-Jul-26 17:26N 31°28' W 011°09'3 7.4
2017-Jul-26 17:00N 31°26' W 011°12'4 7.6
2017-Jul-26 16:30N 31°24' W 011°15'4 8.1
2017-Jul-26 15:57N 31°21' W 011°19'4 8.0
2017-Jul-26 15:28N 31°18' W 011°22'6 8.3
2017-Jul-26 14:45N 31°14' W 011°27'6 8.5
2017-Jul-26 14:00N 31°09' W 011°32'4 8.7
2017-Jul-26 13:29N 31°06' W 011°36'5 9.0
2017-Jul-26 12:57N 31°03' W 011°40'4 9.0
2017-Jul-26 12:30N 31°00' W 011°44'6 9.0
2017-Jul-26 11:48N 30°56' W 011°50'3 8.8
2017-Jul-26 11:28N 30°54' W 011°52'46 8.2
2017-Jul-26 05:49N 30°24' W 012°32'19 7.4
2017-Jul-26 03:15N 30°11' W 012°48'6 7.2
2017-Jul-26 02:28N 30°07' W 012°53'7 7.3
2017-Jul-26 01:31N 30°02' W 012°59'1 7.2
2017-Jul-26 01:24N 30°01' W 012°59'6 6.9
2017-Jul-26 00:31N 29°57' W 013°04'1 6.9
2017-Jul-26 00:23N 29°57' W 013°05'47 7.2
2017-Jul-25 17:52N 29°25' W 013°45'14 8.0
2017-Jul-25 16:09N 29°16' W 013°57'2 8.1
2017-Jul-25 15:52N 29°14' W 013°59'3 7.9
2017-Jul-25 15:30N 29°12' W 014°01'14 8.0
2017-Jul-25 13:42N 29°03' W 014°13'2 8.1
2017-Jul-25 13:28N 29°01' W 014°15'4 7.9
2017-Jul-25 13:00N 28°59' W 014°18'4 7.9
2017-Jul-25 12:29N 28°56' W 014°21'7 7.9
2017-Jul-25 11:39N 28°52' W 014°27'1 7.8
2017-Jul-25 11:29N 28°51' W 014°28'5 8.0
2017-Jul-25 10:53N 28°48' W 014°33'4 7.9
2017-Jul-25 10:23N 28°45' W 014°36'3 7.8
2017-Jul-25 10:00N 28°43' W 014°39'9 7.8
2017-Jul-25 08:52N 28°38' W 014°46'4 7.7
2017-Jul-25 08:24N 28°35' W 014°49'3 8.1
2017-Jul-25 07:59N 28°33' W 014°52'4 7.9
2017-Jul-25 07:30N 28°30' W 014°55'4 7.9
2017-Jul-25 07:00N 28°27' W 014°58'4 7.9
2017-Jul-25 06:30N 28°25' W 015°01'4 8.0
2017-Jul-25 06:00N 28°22' W 015°05'4 8.0
2017-Jul-25 05:30N 28°19' W 015°08'4 8.1
2017-Jul-25 05:00N 28°16' W 015°11'4 8.3
2017-Jul-25 04:30N 28°13' W 015°15'4 8.5
2017-Jul-25 04:00N 28°11' W 015°18'4 8.4
2017-Jul-25 03:30N 28°08' W 015°22'2 4.9
2017-Jul-25 03:00N 28°08' W 015°25'0 0.5
2017-Jul-25 02:22N 28°08' W 015°25'0 0.0
2017-Jul-25 01:52N 28°08' W 015°25'0 0.0
2017-Jul-25 01:22N 28°08' W 015°25'0 0.0
2017-Jul-25 00:55N 28°08' W 015°25'0 0.0
2017-Jul-25 00:25N 28°08' W 015°25'0 0.0
2017-Jul-24 23:55N 28°08' W 015°25'0 0.0
2017-Jul-24 23:25N 28°08' W 015°25'0 0.0
2017-Jul-24 22:55N 28°08' W 015°25'0 0.0
2017-Jul-24 22:25N 28°08' W 015°25'0 0.0
2017-Jul-24 21:55N 28°08' W 015°25'0 0.0
2017-Jul-24 21:25N 28°08' W 015°25'0 0.0
2017-Jul-24 20:58N 28°08' W 015°25'0 0.0
2017-Jul-24 20:28N 28°08' W 015°25'0 0.0
2017-Jul-24 19:58N 28°08' W 015°25'0 0.0
2017-Jul-24 19:28N 28°08' W 015°25'0 0.0
2017-Jul-24 18:58N 28°08' W 015°25'0 0.0
2017-Jul-24 18:29N 28°08' W 015°25'1 2.9
2017-Jul-24 18:00N 28°07' W 015°24'2 4.2
2017-Jul-24 17:31N 28°06' W 015°22'4 8.4
2017-Jul-24 17:00N 28°02' W 015°20'4 8.3
2017-Jul-24 16:30N 27°58' W 015°19'4 7.7
2017-Jul-24 16:00N 27°55' W 015°17'  

Dump ship's entire track history